Pagrindinis puslapis
METAR-TAF:

METAR-TAF

Oro uostai :

Zaporožė, Ukraina

platuma: 47-52-02N, ilguma: 035-18-59E, Aukštis: 114 m

Dabartinis oras

Ataskaita buvo paskelbta 48 minutes, ne 18:00 UTC
Vėjas 2 kt iš Rytų
Temperatūra 15°C
Drėgmė 55%
Slėgis 1021 hPa
Matomumas 10 km arba daugiau
nėra debesų žemiau 1500 m ir nėra kamuolinių lietaus debesų

METAR: UKDE 151800Z 10001MPS CAVOK 15/06 Q1021 R02R/////// NOSIG

Laikas: 21:48 (18:48 UTC)

Prognozė

Ataskaita buvo paskelbta 1 valandą ir 46 minutes, ne 17:02 UTC
Prognozė galioja nuo 15 metu 18 UTC su 16 metu 03 UTC
Vėjas 6 kt iš Pietų/Pietvakarių
Matomumas 10 km arba daugiau
nėra debesų žemiau 1500 m ir nėra kamuolinių lietaus debesų
Laikinai
nuo 15 metu 18 UTC su 16 metu 03 UTC
Vėjas 6 kt iš Vakarų/Pietvakarių

TAF: UKDE 151702Z 1518/1603 20003MPS CAVOK TEMPO 1518/1603 24003MPS

Orai ataskaitas ir orų prognozės (METAR, TAF).

turimą stotys yra geltonos ir raudonos taškus žemėlapyje.

Perkelti pele per norėdami pamatyti stoties vardą.

Tada spustelėkite, norėdami matyti oro stebėjimo ir prognozės.

Norėdami pakeisti žemėlapį: spustelėkite ant žalios mygtukų su juodo kryžiaus žemyn,; žalią mygtuką su brūkšneliu, jei norite nutolinti; arba žalių rodyklių gretimoms žemėlapius.


METAR-TAF: